createdAt,value
2022-08-12T00:02:08.017Z,21.38
2022-08-12T00:04:53.278Z,21.37
2022-08-12T00:07:39.251Z,21.39
2022-08-12T00:10:24.700Z,21.21
2022-08-12T00:13:11.721Z,21.21
2022-08-12T00:15:57.407Z,21.17
2022-08-12T00:18:42.836Z,21.29
2022-08-12T00:21:31.282Z,21.38
2022-08-12T00:24:18.115Z,21.39
2022-08-12T00:27:06.115Z,21.44
2022-08-12T00:29:52.689Z,21.50
2022-08-12T00:32:37.969Z,21.37
2022-08-12T00:35:24.400Z,21.23
2022-08-12T00:38:20.075Z,21.21
2022-08-12T00:41:05.518Z,21.05
2022-08-12T00:43:35.114Z,21.09
2022-08-12T00:46:22.154Z,21.16
2022-08-12T00:48:49.577Z,21.24
2022-08-12T00:51:16.499Z,21.20
2022-08-12T00:53:43.100Z,21.08
2022-08-12T00:56:10.853Z,20.61
2022-08-12T00:58:44.696Z,20.59
2022-08-12T01:01:11.259Z,20.63
2022-08-12T01:03:59.619Z,20.81
2022-08-12T01:06:50.905Z,20.89
2022-08-12T01:09:39.309Z,20.92
2022-08-12T01:12:08.361Z,20.95
2022-08-12T01:14:35.160Z,20.93
2022-08-12T01:17:01.898Z,20.76
2022-08-12T01:19:28.658Z,20.62
2022-08-12T01:22:23.496Z,20.54
2022-08-12T01:24:59.099Z,20.54
2022-08-12T01:27:27.492Z,20.50
2022-08-12T01:29:56.920Z,20.33
2022-08-12T01:32:26.763Z,20.44
2022-08-12T01:35:01.375Z,20.37
2022-08-12T01:37:30.563Z,20.27
2022-08-12T01:40:33.985Z,20.24
2022-08-12T01:42:50.410Z,20.21
2022-08-12T01:45:24.763Z,20.10
2022-08-12T01:48:05.871Z,20.21
2022-08-12T01:50:44.789Z,20.21
2022-08-12T01:53:15.925Z,20.07
2022-08-12T01:55:46.339Z,20.00
2022-08-12T01:58:25.752Z,19.96
2022-08-12T02:01:11.879Z,19.98
2022-08-12T02:04:18.590Z,19.92
2022-08-12T02:07:24.007Z,19.87
2022-08-12T02:10:49.984Z,19.78
2022-08-12T02:13:49.139Z,19.74
2022-08-12T02:16:30.340Z,19.76
2022-08-12T02:19:28.545Z,19.67
2022-08-12T02:22:20.452Z,19.70
2022-08-12T02:24:48.970Z,19.56
2022-08-12T02:27:19.018Z,19.58
2022-08-12T02:29:45.573Z,19.53
2022-08-12T02:32:13.680Z,19.51
2022-08-12T02:34:43.889Z,19.48
2022-08-12T02:37:15.602Z,19.52
2022-08-12T02:39:49.051Z,19.47
2022-08-12T02:42:18.979Z,19.24
2022-08-12T02:44:48.899Z,19.29
2022-08-12T02:47:18.285Z,19.30
2022-08-12T02:50:05.931Z,19.43
2022-08-12T02:52:34.613Z,19.43
2022-08-12T02:55:28.806Z,19.38
2022-08-12T02:58:07.074Z,19.17
2022-08-12T03:00:40.098Z,19.06
2022-08-12T03:03:09.259Z,19.10
2022-08-12T03:05:46.801Z,19.02
2022-08-12T03:08:31.571Z,18.82
2022-08-12T03:11:11.949Z,18.70
2022-08-12T03:13:47.127Z,18.14
2022-08-12T03:16:14.819Z,18.35
2022-08-12T03:18:46.269Z,18.60
2022-08-12T03:21:16.981Z,18.73
2022-08-12T03:23:45.857Z,18.72
2022-08-12T03:26:13.186Z,18.88
2022-08-12T03:28:50.836Z,18.62
2022-08-12T03:31:20.180Z,18.59
2022-08-12T03:34:00.915Z,18.53
2022-08-12T03:36:36.373Z,18.46
2022-08-12T03:39:18.229Z,18.15
2022-08-12T03:42:06.086Z,18.39
2022-08-12T03:45:42.065Z,18.22
2022-08-12T03:48:37.936Z,18.40
2022-08-12T03:51:23.999Z,18.55
2022-08-12T03:54:11.274Z,18.54
2022-08-12T03:56:58.112Z,18.47
2022-08-12T03:59:43.517Z,18.49
2022-08-12T04:02:16.836Z,18.32
2022-08-12T04:04:45.611Z,18.10
2022-08-12T04:07:13.961Z,17.68
2022-08-12T04:09:42.697Z,17.85
2022-08-12T04:12:30.001Z,17.98
2022-08-12T04:15:00.265Z,17.90
2022-08-12T04:17:28.511Z,17.98
2022-08-12T04:19:57.281Z,18.10
2022-08-12T04:22:30.708Z,18.12
2022-08-12T04:25:01.221Z,18.17
2022-08-12T04:27:30.046Z,18.17
2022-08-12T04:30:29.705Z,18.11
2022-08-12T04:32:44.707Z,18.08
2022-08-12T04:35:12.486Z,18.12
2022-08-12T04:37:59.003Z,18.08
2022-08-12T04:40:28.218Z,18.21
2022-08-12T04:42:56.003Z,18.22
2022-08-12T04:45:22.867Z,18.02
2022-08-12T04:47:49.525Z,18.06
2022-08-12T04:50:33.825Z,18.01
2022-08-12T04:53:02.626Z,18.07
2022-08-12T04:55:29.970Z,18.02
2022-08-12T04:57:56.513Z,18.01
2022-08-12T05:00:23.053Z,18.18
2022-08-12T05:02:49.647Z,18.16
2022-08-12T05:05:19.278Z,18.23
2022-08-12T05:07:54.546Z,18.38
2022-08-12T05:10:33.978Z,18.41
2022-08-12T05:13:09.265Z,18.34
2022-08-12T05:15:53.091Z,18.51
2022-08-12T05:18:29.134Z,18.61
2022-08-12T05:20:56.637Z,18.65
2022-08-12T05:23:23.509Z,18.72
2022-08-12T05:25:56.226Z,18.80
2022-08-12T05:28:24.416Z,18.95
2022-08-12T05:30:51.826Z,18.99
2022-08-12T05:33:18.622Z,19.18
2022-08-12T05:35:47.657Z,19.18
2022-08-12T05:38:34.927Z,19.22
2022-08-12T05:41:02.842Z,19.33
2022-08-12T05:43:29.573Z,19.47
2022-08-12T05:45:56.162Z,19.62
2022-08-12T05:48:22.624Z,19.80
2022-08-12T05:50:49.209Z,19.92
2022-08-12T05:53:16.265Z,19.95
2022-08-12T05:55:42.788Z,20.10
2022-08-12T05:58:09.314Z,20.30
2022-08-12T06:00:37.153Z,20.42
2022-08-12T06:03:05.953Z,20.41
2022-08-12T06:05:42.990Z,20.63
2022-08-12T06:08:21.747Z,20.75
2022-08-12T06:10:50.168Z,21.14
2022-08-12T06:13:27.883Z,21.24
2022-08-12T06:15:55.789Z,21.39
2022-08-12T06:18:26.498Z,21.54
2022-08-12T06:21:01.693Z,21.60
2022-08-12T06:23:29.488Z,21.56
2022-08-12T06:25:56.904Z,21.75
2022-08-12T06:28:23.593Z,21.81
2022-08-12T06:31:08.644Z,22.02
2022-08-12T06:33:55.345Z,21.95
2022-08-12T06:36:25.222Z,22.26
2022-08-12T06:38:57.464Z,22.27
2022-08-12T06:42:21.266Z,22.45
2022-08-12T06:44:45.551Z,22.61
2022-08-12T06:47:12.131Z,22.75
2022-08-12T06:49:38.655Z,22.86
2022-08-12T06:52:07.325Z,22.75
2022-08-12T06:54:35.342Z,22.95
2022-08-12T06:57:04.816Z,23.25
2022-08-12T06:59:32.350Z,23.32
2022-08-12T07:01:58.895Z,23.34
2022-08-12T07:04:36.335Z,23.36
2022-08-12T07:07:06.044Z,23.53
2022-08-12T07:10:06.653Z,23.68
2022-08-12T07:12:19.667Z,23.83
2022-08-12T07:14:50.500Z,24.20
2022-08-12T07:17:17.457Z,24.44
2022-08-12T07:19:45.421Z,24.51
2022-08-12T07:22:14.107Z,24.55
2022-08-12T07:24:40.860Z,24.67
2022-08-12T07:27:07.457Z,24.95
2022-08-12T07:29:57.913Z,24.95
2022-08-12T07:32:24.511Z,24.92
2022-08-12T07:34:52.385Z,25.16
2022-08-12T07:37:18.998Z,24.95
2022-08-12T07:39:51.175Z,25.16
2022-08-12T07:42:27.252Z,24.99
2022-08-12T07:44:53.821Z,24.99
2022-08-12T07:47:20.399Z,25.09
2022-08-12T07:50:04.147Z,25.38
2022-08-12T07:52:34.863Z,25.60
2022-08-12T07:55:02.442Z,25.66
2022-08-12T07:57:29.002Z,25.61
2022-08-12T07:59:56.181Z,25.70
2022-08-12T08:02:26.725Z,25.84
2022-08-12T08:04:56.682Z,25.94
2022-08-12T08:07:25.596Z,26.00
2022-08-12T08:09:58.608Z,26.08
2022-08-12T08:13:01.686Z,26.18
2022-08-12T08:16:01.913Z,26.30
2022-08-12T08:18:27.469Z,26.39
2022-08-12T08:20:56.307Z,26.67
2022-08-12T08:23:29.328Z,26.79
2022-08-12T08:26:01.594Z,26.65
2022-08-12T08:28:28.092Z,26.73
2022-08-12T08:30:54.558Z,26.73
2022-08-12T08:33:24.838Z,26.92
2022-08-12T08:36:16.412Z,27.08
2022-08-12T08:38:55.019Z,27.15
2022-08-12T08:42:19.027Z,27.01
2022-08-12T08:44:30.508Z,27.32
2022-08-12T08:46:57.169Z,27.25
2022-08-12T08:49:23.848Z,27.40
2022-08-12T08:51:50.331Z,27.63
2022-08-12T08:54:17.424Z,27.48
2022-08-12T08:56:44.196Z,27.66
2022-08-12T08:59:12.601Z,27.85
2022-08-12T09:01:40.624Z,27.84
2022-08-12T09:07:00.137Z,27.94
2022-08-12T09:09:34.062Z,28.21
2022-08-12T09:12:32.280Z,28.23
2022-08-12T09:14:58.895Z,28.23
2022-08-12T09:17:26.018Z,28.44
2022-08-12T09:19:58.187Z,28.67
2022-08-12T09:22:29.251Z,28.77
2022-08-12T09:24:59.854Z,28.91
2022-08-12T09:28:04.104Z,29.10
2022-08-12T09:30:18.311Z,29.05
2022-08-12T09:33:15.247Z,29.17
2022-08-12T09:36:02.916Z,28.86
2022-08-12T09:38:31.995Z,28.98
2022-08-12T09:42:09.600Z,29.38
2022-08-12T09:44:37.714Z,29.05
2022-08-12T09:46:56.114Z,29.20
2022-08-12T09:49:24.938Z,29.27
2022-08-12T09:51:55.191Z,29.48
2022-08-12T09:54:33.542Z,29.47
2022-08-12T09:58:08.001Z,29.84
2022-08-12T10:00:16.186Z,29.76
2022-08-12T10:03:06.200Z,29.94
2022-08-12T10:06:26.510Z,29.88
2022-08-12T10:08:24.456Z,29.61
2022-08-12T10:11:20.050Z,29.83
2022-08-12T10:13:48.703Z,29.93
2022-08-12T10:16:22.245Z,29.74
2022-08-12T10:18:57.129Z,30.02
2022-08-12T10:21:36.335Z,30.24
2022-08-12T10:24:23.282Z,30.19
2022-08-12T10:27:08.889Z,30.26
2022-08-12T10:30:37.672Z,30.51
2022-08-12T10:32:44.373Z,30.52
2022-08-12T10:35:15.648Z,30.62
2022-08-12T10:38:38.229Z,31.01
2022-08-12T10:40:33.120Z,30.87
2022-08-12T10:43:19.175Z,30.95
2022-08-12T10:45:49.548Z,30.97
2022-08-12T10:48:21.779Z,30.67
2022-08-12T10:51:01.500Z,31.14
2022-08-12T10:53:44.987Z,31.29
2022-08-12T10:56:17.566Z,31.45
2022-08-12T10:58:47.103Z,31.68
2022-08-12T11:02:05.258Z,31.37
2022-08-12T11:04:28.132Z,31.79
2022-08-12T11:07:08.461Z,32.11
2022-08-12T11:10:00.354Z,32.11
2022-08-12T11:12:54.807Z,31.36
2022-08-12T11:15:20.888Z,31.65
2022-08-12T11:17:54.183Z,31.78
2022-08-12T11:20:24.228Z,31.74
2022-08-12T11:23:01.770Z,31.65
2022-08-12T11:25:55.412Z,31.37
2022-08-12T11:28:33.307Z,31.74
2022-08-12T11:31:02.657Z,31.73
2022-08-12T11:34:04.820Z,32.39
2022-08-12T11:36:16.654Z,32.59
2022-08-12T11:38:50.458Z,32.54
2022-08-12T11:41:28.084Z,32.71
2022-08-12T11:43:59.355Z,32.00
2022-08-12T11:46:26.001Z,31.74
2022-08-12T11:48:52.906Z,31.53
2022-08-12T11:51:20.798Z,31.02
2022-08-12T11:53:57.861Z,31.48
2022-08-12T11:56:38.773Z,31.26
2022-08-12T12:02:02.280Z,31.64
2022-08-12T12:04:31.385Z,31.68
2022-08-12T12:07:07.224Z,31.90
2022-08-12T12:09:51.964Z,32.35
2022-08-12T12:12:24.846Z,32.69
2022-08-12T12:14:55.020Z,32.65
2022-08-12T12:17:26.083Z,32.08
2022-08-12T12:19:55.046Z,31.70
2022-08-12T12:22:23.165Z,32.11
2022-08-12T12:24:53.952Z,32.16
2022-08-12T12:27:42.289Z,32.48
2022-08-12T12:30:18.043Z,32.11
2022-08-12T12:32:53.935Z,31.72
2022-08-12T12:36:06.221Z,31.73
2022-08-12T12:38:12.598Z,32.61
2022-08-12T12:40:43.865Z,32.55
2022-08-12T12:43:11.268Z,32.41
2022-08-12T12:45:39.313Z,31.75
2022-08-12T12:48:11.855Z,32.08
2022-08-12T12:50:42.742Z,31.94
2022-08-12T12:54:06.439Z,32.20
2022-08-12T12:56:15.641Z,32.26
2022-08-12T12:58:43.332Z,32.03
2022-08-12T13:01:27.944Z,32.04
2022-08-12T13:04:01.649Z,32.18
2022-08-12T13:06:31.985Z,31.69
2022-08-12T13:09:03.040Z,32.33
2022-08-12T13:11:41.952Z,32.27
2022-08-12T13:14:28.151Z,32.73
2022-08-12T13:17:00.991Z,32.87
2022-08-12T13:19:38.862Z,33.23
2022-08-12T13:22:18.186Z,33.85
2022-08-12T13:24:45.170Z,34.37
2022-08-12T13:27:11.632Z,34.08
2022-08-12T13:29:39.229Z,33.76
2022-08-12T13:32:18.605Z,32.78
2022-08-12T13:34:53.393Z,32.79
2022-08-12T13:37:54.395Z,32.67
2022-08-12T13:40:18.363Z,32.76
2022-08-12T13:42:49.070Z,33.25
2022-08-12T13:45:17.759Z,33.24
2022-08-12T13:48:19.698Z,32.83
2022-08-12T13:50:46.534Z,33.38
2022-08-12T13:53:24.173Z,32.75
2022-08-12T13:56:01.654Z,32.20
2022-08-12T13:58:30.051Z,32.82
2022-08-12T14:00:58.131Z,33.02
2022-08-12T14:03:28.644Z,33.44
2022-08-12T14:06:15.324Z,33.38
2022-08-12T14:08:43.210Z,33.22
2022-08-12T14:11:12.608Z,32.88
2022-08-12T14:14:03.375Z,33.20
2022-08-12T14:16:37.737Z,33.86
2022-08-12T14:19:22.237Z,33.01
2022-08-12T14:22:01.154Z,33.72
2022-08-12T14:24:35.144Z,33.47
2022-08-12T14:27:03.598Z,33.27
2022-08-12T14:29:38.238Z,33.06
2022-08-12T14:32:22.383Z,33.27
2022-08-12T14:34:51.472Z,33.58
2022-08-12T14:37:56.196Z,33.35
2022-08-12T14:40:18.626Z,32.54
2022-08-12T14:42:47.062Z,32.68
2022-08-12T14:45:13.823Z,32.45
2022-08-12T14:47:53.649Z,32.99
2022-08-12T14:50:37.369Z,33.50
2022-08-12T14:55:13.870Z,33.47
2022-08-12T14:59:20.635Z,33.76
2022-08-12T15:01:50.482Z,33.40
2022-08-12T15:04:26.228Z,33.54
2022-08-12T15:06:53.065Z,33.08
2022-08-12T15:09:28.700Z,32.56
2022-08-12T15:12:03.095Z,32.94
2022-08-12T15:14:31.027Z,32.79
2022-08-12T15:17:00.522Z,32.77
2022-08-12T15:20:09.240Z,33.10
2022-08-12T15:22:36.884Z,33.12
2022-08-12T15:25:07.151Z,32.82
2022-08-12T15:28:04.198Z,32.61
2022-08-12T15:30:30.937Z,32.93
2022-08-12T15:32:57.611Z,32.82
2022-08-12T15:35:27.425Z,33.15
2022-08-12T15:38:09.600Z,33.34
2022-08-12T15:44:14.176Z,33.08
2022-08-12T15:46:15.366Z,32.72
2022-08-12T15:48:46.953Z,32.88
2022-08-12T15:51:57.406Z,33.16
2022-08-12T15:54:33.352Z,32.99
2022-08-12T15:57:07.949Z,33.10
2022-08-12T16:00:04.076Z,32.79
2022-08-12T16:02:23.349Z,32.31
2022-08-12T16:04:53.729Z,32.43
2022-08-12T16:07:29.720Z,32.24
2022-08-12T16:10:06.756Z,32.08
2022-08-12T16:13:12.101Z,31.78
2022-08-12T16:16:01.497Z,32.27
2022-08-12T16:18:31.329Z,32.04
2022-08-12T16:20:58.190Z,32.18
2022-08-12T16:23:51.991Z,32.10
2022-08-12T16:26:15.282Z,32.14
2022-08-12T16:28:47.434Z,32.42
2022-08-12T16:31:22.493Z,32.20
2022-08-12T16:33:59.284Z,31.97
2022-08-12T16:36:27.978Z,31.95
2022-08-12T16:38:54.642Z,31.98
2022-08-12T16:41:22.604Z,31.85
2022-08-12T16:43:50.451Z,31.57
2022-08-12T16:46:31.086Z,31.54
2022-08-12T16:48:59.672Z,31.67
2022-08-12T16:51:37.572Z,31.53
2022-08-12T16:54:14.191Z,31.42
2022-08-12T16:56:54.840Z,31.39
2022-08-12T16:59:30.844Z,31.30
2022-08-12T17:02:31.755Z,31.43
2022-08-12T17:05:03.200Z,30.99
2022-08-12T17:07:36.444Z,31.20
2022-08-12T17:10:13.985Z,31.30
2022-08-12T17:12:45.329Z,31.39
2022-08-12T17:15:50.856Z,31.18
2022-08-12T17:18:42.161Z,31.18
2022-08-12T17:20:49.076Z,31.21
2022-08-12T17:23:17.993Z,31.11
2022-08-12T17:25:52.355Z,31.14
2022-08-12T17:28:21.300Z,31.21
2022-08-12T17:30:57.245Z,31.29
2022-08-12T17:33:27.701Z,31.40
2022-08-12T17:36:05.554Z,31.14
2022-08-12T17:38:34.672Z,31.06
2022-08-12T17:41:22.483Z,30.59
2022-08-12T17:43:58.473Z,30.56
2022-08-12T17:46:33.674Z,30.48
2022-08-12T17:49:00.494Z,30.72
2022-08-12T17:51:50.126Z,30.65
2022-08-12T17:54:17.454Z,30.80
2022-08-12T17:56:47.145Z,30.76
2022-08-12T17:59:13.927Z,30.39
2022-08-12T18:02:02.653Z,30.11
2022-08-12T18:04:35.444Z,29.95
2022-08-12T18:07:02.814Z,30.00
2022-08-12T18:09:36.183Z,30.04
2022-08-12T18:12:24.778Z,30.23
2022-08-12T18:15:01.013Z,29.73
2022-08-12T18:17:34.725Z,29.85
2022-08-12T18:20:15.415Z,29.89
2022-08-12T18:22:43.428Z,29.96
2022-08-12T18:26:13.016Z,30.03
2022-08-12T18:28:16.126Z,30.03
2022-08-12T18:30:53.293Z,29.98
2022-08-12T18:33:24.737Z,29.69
2022-08-12T18:35:53.357Z,29.86
2022-08-12T18:38:22.443Z,29.71
2022-08-12T18:41:10.082Z,29.69
2022-08-12T18:43:57.650Z,29.69
2022-08-12T18:46:55.376Z,29.72
2022-08-12T18:49:31.986Z,29.65
2022-08-12T18:52:04.185Z,29.57
2022-08-12T18:54:34.853Z,29.51
2022-08-12T18:57:07.136Z,29.39
2022-08-12T19:00:01.781Z,29.30
2022-08-12T19:02:36.699Z,29.25
2022-08-12T19:05:09.947Z,29.17
2022-08-12T19:07:57.779Z,28.97
2022-08-12T19:10:32.083Z,28.92
2022-08-12T19:13:24.365Z,28.80
2022-08-12T19:15:57.375Z,28.65
2022-08-12T19:18:29.789Z,28.65
2022-08-12T19:21:00.407Z,28.63
2022-08-12T19:23:35.566Z,28.51
2022-08-12T19:26:05.030Z,28.45
2022-08-12T19:28:34.808Z,28.25
2022-08-12T19:31:50.864Z,28.16
2022-08-12T19:38:03.957Z,27.59
2022-08-12T19:40:32.531Z,27.34
2022-08-12T19:43:17.272Z,27.44
2022-08-12T19:45:53.114Z,27.54
2022-08-12T19:48:23.465Z,27.45
2022-08-12T19:50:53.548Z,27.33
2022-08-12T19:53:24.107Z,27.36
2022-08-12T19:55:53.392Z,27.10
2022-08-12T19:58:20.410Z,27.04
2022-08-12T20:00:53.408Z,27.00
2022-08-12T20:03:38.505Z,26.85
2022-08-12T20:06:13.646Z,26.71
2022-08-12T20:08:48.614Z,26.67
2022-08-12T20:12:11.401Z,26.70
2022-08-12T20:14:04.439Z,26.51
2022-08-12T20:16:57.457Z,26.41
2022-08-12T20:19:52.697Z,26.30
2022-08-12T20:22:24.384Z,26.00
2022-08-12T20:24:57.835Z,25.83
2022-08-12T20:28:03.280Z,25.87
2022-08-12T20:30:52.322Z,25.72
2022-08-12T20:33:18.896Z,25.79
2022-08-12T20:36:06.496Z,25.74
2022-08-12T20:38:45.865Z,25.67
2022-08-12T20:41:17.646Z,25.64
2022-08-12T20:43:59.244Z,25.57
2022-08-12T20:46:36.265Z,25.54
2022-08-12T20:49:17.391Z,25.38
2022-08-12T20:51:51.052Z,25.16
2022-08-12T20:54:23.131Z,25.54
2022-08-12T20:57:09.818Z,25.57
2022-08-12T20:59:49.544Z,25.53
2022-08-12T21:02:24.392Z,25.48
2022-08-12T21:05:19.599Z,25.48
2022-08-12T21:08:02.550Z,25.15
2022-08-12T21:10:35.900Z,25.33
2022-08-12T21:13:20.178Z,25.33
2022-08-12T21:15:54.603Z,25.38
2022-08-12T21:18:30.822Z,25.19
2022-08-12T21:20:59.542Z,25.26
2022-08-12T21:23:30.837Z,25.23
2022-08-12T21:26:12.376Z,25.27
2022-08-12T21:29:04.252Z,25.20
2022-08-12T21:32:36.732Z,24.99
2022-08-12T21:34:42.478Z,25.01
2022-08-12T21:37:26.907Z,24.86
2022-08-12T21:43:01.097Z,24.85
2022-08-12T21:45:47.811Z,24.69
2022-08-12T21:48:20.033Z,24.72
2022-08-12T21:50:46.540Z,24.71
2022-08-12T21:53:17.993Z,24.65
2022-08-12T21:55:47.702Z,24.63
2022-08-12T21:58:21.019Z,24.67
2022-08-12T22:00:47.771Z,24.65
2022-08-12T22:04:03.623Z,24.64
2022-08-12T22:06:30.846Z,24.52
2022-08-12T22:09:16.711Z,24.48
2022-08-12T22:11:49.056Z,24.45
2022-08-12T22:14:23.672Z,24.36
2022-08-12T22:16:53.078Z,24.36
2022-08-12T22:19:20.863Z,24.30
2022-08-12T22:21:53.362Z,24.21
2022-08-12T22:24:26.230Z,24.25
2022-08-12T22:27:18.215Z,24.20
2022-08-12T22:30:07.216Z,24.13
2022-08-12T22:32:34.202Z,24.02
2022-08-12T22:35:23.172Z,23.86
2022-08-12T22:37:50.709Z,23.84
2022-08-12T22:40:20.404Z,23.75
2022-08-12T22:43:06.040Z,23.73
2022-08-12T22:45:58.877Z,23.65
2022-08-12T22:48:26.400Z,23.65
2022-08-12T22:50:56.512Z,23.55
2022-08-12T22:53:26.510Z,23.48
2022-08-12T22:56:06.808Z,23.37
2022-08-12T22:58:40.197Z,23.36
2022-08-12T23:01:07.879Z,23.12
2022-08-12T23:03:48.828Z,23.09
2022-08-12T23:06:19.847Z,23.03
2022-08-12T23:08:48.079Z,23.07
2022-08-12T23:11:17.229Z,23.01
2022-08-12T23:13:54.658Z,22.96
2022-08-12T23:16:31.563Z,22.86
2022-08-12T23:19:18.033Z,22.85
2022-08-12T23:22:06.512Z,22.79
2022-08-12T23:24:41.184Z,22.77
2022-08-12T23:27:50.743Z,22.67
2022-08-12T23:30:31.829Z,22.66
2022-08-12T23:33:13.053Z,22.57
2022-08-12T23:35:53.917Z,22.61
2022-08-12T23:38:31.365Z,22.47
2022-08-12T23:41:05.136Z,22.30
2022-08-12T23:43:39.279Z,22.22
2022-08-12T23:46:12.359Z,22.29
2022-08-12T23:48:48.101Z,22.24
2022-08-12T23:51:22.705Z,22.20
2022-08-12T23:53:56.438Z,22.06
2022-08-12T23:56:27.586Z,21.77
2022-08-12T23:58:57.631Z,21.63
